Igor I Sikorsky Memorial Airport
KBDR : now visible

Airfield :











YOU CAN JOIN US ON...

 
LOGIN :

Register | Disclaimer

   EN    FR    IT 

 









Legend :    VFR   Marginal VFR   IFR   Intensive IFR   Very Intensive IFR
Visi :
Ceiling :
>= 8 km
>= 3000ft
5 to 8 km
1000 to 3000 ft
1500m to 5 km
500 to 1000 ft
800 to 1500m
200 to 500 ft
< 800m
< 200 ft
Symbols :   Thunderstorms  Fog  Heavy snow  Heavy precipitations  Wind > 20 kt






- Airport Elevation : 9 ft
- IATA code : BDR


KBDR - Igor I Sikorsky Memorial

CURRENT METAR :
  • 170652Z AUTO 07028G41KT 4SM RA BR OVC012 03/02 A2958 RMK AO2 PK WND 07043/0642 SLP016 P0010 T00330022

EXPIRED METARs :
  • 170552Z AUTO 07026G34KT 6SM RA BR OVC011 03/03 A2967 RMK AO2 PK WND 07034/0552 PRESFR SLP046 P0008 60020 I1000 I6006 T00330028 10033 21011 58100
  • 170452Z AUTO 05017KT 9SM -RA BKN012 OVC019 02/01 A2979 RMK AO2 RAB37FZRAE37 PRESFR SLP087 P0006 I1002 T00170006 400281144
  • 170443Z AUTO 05019G25KT 8SM -RA FEW010 OVC017 02/00 A2980 RMK AO2 RAB37FZRAE37 PRESFR P0005 I1002 T00170000

TAF KBDR
Valid from the 17 at 06:00 until the 18 at 06:00 UTC


170535Z 1706/1806 08023G30KT 3SM RA BR OVC012 WS020/11050KT
TEMPO 1706/1707 OVC008
FM170700 08026G46KT 1SM RA BR OVC008 WS020/11060KT
TEMPO 1708/1711 1/2SM +RA BKN005
FM171200 12020G38KT 5SM RA BR OVC015
FM171500 22016G25KT P6SM BKN015
FM172000 23016G25KT P6SM BKN025
FM180200 28016G25KT P6SM BKN040
KZBW FIR / North America



MET'MAP, your aeronautical weather chart ! - Copyright ORBIFLY December 2007 - Disclaimer

ORBIFLY MET'MAP TEAM :

Programming & Development : Alexandra Zaïnal
Concept & original design : Baudouin d'Aumeries
Assistance for programming : Marc-Olivier Méhu
Technical & hardware support : Manuel Goepfert

Contact : metmap@orbifly.com




SOURCES & CREDITS :

   NOAA       Earth
Advisory